Time;durP1;ratioP1;P1;durP2;ratioP2;P2;SDS_P1;SDS_P2;PMS_P1;PMS_P2;Temp;Humidity;BMP_temperature;BMP_pressure;BME280_temperature;BME280_humidity;BME280_pressure;Samples;Min_cycle;Max_cycle;Signal;HPM_P1;HPM_P2
2022/01/18 00:00:29;;;;;;;10.13;3.30;;;;;;;;;;4995340;28;20196;-75
2022/01/18 00:02:58;;;;;;;11.23;3.10;;;;;;;;;;4997547;28;20315;-75
2022/01/18 00:05:25;;;;;;;14.63;3.17;;;;;;;;;;4995597;28;20207;-75
2022/01/18 00:07:52;;;;;;;18.70;3.20;;;;;;;;;;4997298;28;20215;-75
2022/01/18 00:10:23;;;;;;;15.10;3.40;;;;;;;;;;4995207;28;20299;-75
2022/01/18 00:13:09;;;;;;;13.43;2.70;;;;;;;;;;5000176;28;20273;-76
2022/01/18 00:15:41;;;;;;;22.43;3.17;;;;;;;;;;4995913;28;20299;-76
2022/01/18 00:18:11;;;;;;;23.13;3.43;;;;;;;;;;4997298;28;20236;-76
2022/01/18 00:20:52;;;;;;;14.33;2.53;;;;;;;;;;4998582;28;20204;-76
2022/01/18 00:23:19;;;;;;;19.23;2.83;;;;;;;;;;4996799;28;20662;-75
2022/01/18 00:25:51;;;;;;;22.43;3.23;;;;;;;;;;4996127;28;20208;-75
2022/01/18 00:28:19;;;;;;;12.40;2.50;;;;;;;;;;4997920;28;20300;-76
2022/01/18 00:31:17;;;;;;;18.83;3.50;;;;;;;;;;4994178;28;20636;-75
2022/01/18 00:33:54;;;;;;;13.73;3.57;;;;;;;;;;4989313;28;20731;-74
2022/01/18 00:36:28;;;;;;;14.27;3.03;;;;;;;;;;4997677;28;20589;-75
2022/01/18 00:38:57;;;;;;;12.00;2.70;;;;;;;;;;4999594;28;20204;-75
2022/01/18 00:41:27;;;;;;;10.50;2.53;;;;;;;;;;4995527;28;20232;-76
2022/01/18 00:43:54;;;;;;;8.90;2.90;;;;;;;;;;4993076;28;20311;-74
2022/01/18 00:46:23;;;;;;;12.03;2.77;;;;;;;;;;4995490;28;20236;-76
2022/01/18 00:48:52;;;;;;;14.37;3.00;;;;;;;;;;4998303;28;20208;-75
2022/01/18 00:51:19;;;;;;;13.47;2.67;;;;;;;;;;4998004;28;20196;-76
2022/01/18 00:53:46;;;;;;;13.40;2.47;;;;;;;;;;4990963;28;20221;-75
2022/01/18 00:56:24;;;;;;;16.60;2.60;;;;;;;;;;4996664;28;20576;-76
2022/01/18 00:58:53;;;;;;;12.53;2.60;;;;;;;;;;4992275;28;20216;-74
2022/01/18 01:01:22;;;;;;;19.13;3.30;;;;;;;;;;4996788;28;20753;-76
2022/01/18 01:03:50;;;;;;;22.57;2.70;;;;;;;;;;4990381;28;20270;-75
2022/01/18 01:06:17;;;;;;;27.00;3.90;;;;;;;;;;4994215;28;20201;-76
2022/01/18 01:08:45;;;;;;;15.67;3.23;;;;;;;;;;4993943;28;20298;-76
2022/01/18 01:11:12;;;;;;;13.77;2.90;;;;;;;;;;4992639;28;20683;-75
2022/01/18 01:13:42;;;;;;;14.30;2.57;;;;;;;;;;4993813;28;20236;-74
2022/01/18 01:16:32;;;;;;;20.30;3.57;;;;;;;;;;4990669;28;20753;-76
2022/01/18 01:19:12;;;;;;;18.20;3.13;;;;;;;;;;4997238;28;20223;-76
2022/01/18 01:33:11;;;;;;;9.93;2.50;;;;;;;;;;4994501;28;20303;-75
2022/01/18 01:35:49;;;;;;;15.20;3.30;;;;;;;;;;4992987;28;20667;-76
2022/01/18 01:44:03;;;;;;;8.43;2.30;;;;;;;;;;4992725;28;20276;-74
2022/01/18 01:46:31;;;;;;;17.43;2.67;;;;;;;;;;4992540;28;20205;-76
2022/01/18 01:49:02;;;;;;;14.10;3.57;;;;;;;;;;4989903;28;20224;-76
2022/01/18 01:51:31;;;;;;;13.57;2.40;;;;;;;;;;4990383;28;20560;-75
2022/01/18 01:53:58;;;;;;;10.40;2.63;;;;;;;;;;4989965;28;20352;-74
2022/01/18 01:56:25;;;;;;;13.63;2.10;;;;;;;;;;4993693;28;20207;-76
2022/01/18 01:58:53;;;;;;;12.10;2.40;;;;;;;;;;4992577;28;20205;-76
2022/01/18 02:01:20;;;;;;;10.73;2.13;;;;;;;;;;4993782;28;20299;-76
2022/01/18 02:03:48;;;;;;;14.90;2.20;;;;;;;;;;4991206;28;20228;-75
2022/01/18 02:06:16;;;;;;;7.03;1.73;;;;;;;;;;4992010;28;20212;-76
2022/01/18 02:08:44;;;;;;;13.03;2.80;;;;;;;;;;4993245;28;20296;-76
2022/01/18 02:11:11;;;;;;;16.77;2.33;;;;;;;;;;4992475;28;20631;-76
2022/01/18 02:13:38;;;;;;;14.53;2.23;;;;;;;;;;4991410;28;20225;-76
2022/01/18 02:16:15;;;;;;;13.50;2.60;;;;;;;;;;4993704;28;20212;-76
2022/01/18 02:21:48;;;;;;;7.87;1.90;;;;;;;;;;4993419;28;20717;-76
2022/01/18 02:24:16;;;;;;;10.93;2.40;;;;;;;;;;4990138;28;20240;-76
2022/01/18 02:26:43;;;;;;;13.63;2.60;;;;;;;;;;4994133;28;20215;-75
2022/01/18 02:29:11;;;;;;;9.87;2.80;;;;;;;;;;4994238;28;20295;-76
2022/01/18 02:31:39;;;;;;;14.80;2.63;;;;;;;;;;4995070;28;20208;-75
2022/01/18 02:34:07;;;;;;;11.77;2.60;;;;;;;;;;4994992;28;20611;-76
2022/01/18 02:36:36;;;;;;;10.40;2.30;;;;;;;;;;4994870;28;20219;-76
2022/01/18 02:39:04;;;;;;;13.90;2.57;;;;;;;;;;4995076;28;20208;-75
2022/01/18 02:41:32;;;;;;;12.20;2.53;;;;;;;;;;4993187;28;20236;-74
2022/01/18 02:44:00;;;;;;;21.20;3.30;;;;;;;;;;4995247;28;20290;-76
2022/01/18 02:46:27;;;;;;;16.30;3.17;;;;;;;;;;4994805;28;20296;-76
2022/01/18 02:48:55;;;;;;;13.97;3.00;;;;;;;;;;4993552;28;20208;-75
2022/01/18 02:51:22;;;;;;;12.17;2.37;;;;;;;;;;4993587;28;20204;-76
2022/01/18 02:53:55;;;;;;;13.53;2.63;;;;;;;;;;4993189;28;20244;-75
2022/01/18 02:56:23;;;;;;;9.43;2.47;;;;;;;;;;4991763;28;20208;-76
2022/01/18 02:58:56;;;;;;;11.23;2.57;;;;;;;;;;4996645;28;20211;-75
2022/01/18 03:04:08;;;;;;;11.63;2.97;;;;;;;;;;4995081;28;20234;-76
2022/01/18 03:06:35;;;;;;;11.93;2.30;;;;;;;;;;4992405;28;20215;-74
2022/01/18 03:09:04;;;;;;;13.67;2.43;;;;;;;;;;4997054;28;20226;-76
2022/01/18 03:11:31;;;;;;;10.60;2.60;;;;;;;;;;4993552;28;20210;-76
2022/01/18 03:13:58;;;;;;;13.23;2.53;;;;;;;;;;4995683;28;20224;-76
2022/01/18 03:16:25;;;;;;;13.10;2.73;;;;;;;;;;4999564;28;20204;-75
2022/01/18 03:18:52;;;;;;;10.30;2.60;;;;;;;;;;4992849;28;20205;-76
2022/01/18 03:21:20;;;;;;;17.70;2.90;;;;;;;;;;4992429;28;20635;-76
2022/01/18 03:23:52;;;;;;;11.03;2.90;;;;;;;;;;4994776;28;20231;-76
2022/01/18 03:26:31;;;;;;;10.03;2.40;;;;;;;;;;4992670;28;20223;-73
2022/01/18 03:28:57;;;;;;;16.53;2.50;;;;;;;;;;4995692;28;20201;-73
2022/01/18 03:31:24;;;;;;;12.43;2.47;;;;;;;;;;4994436;28;20224;-73
2022/01/18 03:33:51;;;;;;;15.57;2.73;;;;;;;;;;4996693;28;20311;-74
2022/01/18 03:36:18;;;;;;;9.97;2.60;;;;;;;;;;4991891;28;20209;-72
2022/01/18 03:38:45;;;;;;;21.63;2.90;;;;;;;;;;4993417;28;20215;-75
2022/01/18 03:41:13;;;;;;;13.30;2.90;;;;;;;;;;4994009;28;20204;-75
2022/01/18 03:43:42;;;;;;;16.23;2.80;;;;;;;;;;4993100;28;20330;-75
2022/01/18 03:46:10;;;;;;;10.80;2.70;;;;;;;;;;4993095;28;20209;-73
2022/01/18 03:48:38;;;;;;;17.23;3.20;;;;;;;;;;4995214;28;20208;-73
2022/01/18 03:51:07;;;;;;;13.73;2.83;;;;;;;;;;4992008;28;20300;-72
2022/01/18 03:53:34;;;;;;;10.57;2.87;;;;;;;;;;4994145;28;20746;-74
2022/01/18 03:56:02;;;;;;;12.80;3.40;;;;;;;;;;4994054;28;20212;-74
2022/01/18 03:58:29;;;;;;;9.57;2.77;;;;;;;;;;4990871;28;20212;-75
2022/01/18 04:00:58;;;;;;;12.07;3.10;;;;;;;;;;4991759;28;20296;-73
2022/01/18 04:03:25;;;;;;;15.63;3.20;;;;;;;;;;4991024;28;20905;-72
2022/01/18 04:05:53;;;;;;;14.67;3.20;;;;;;;;;;4992144;28;20298;-75
2022/01/18 04:08:20;;;;;;;18.10;3.50;;;;;;;;;;4990597;28;20208;-73
2022/01/18 04:10:48;;;;;;;14.80;3.93;;;;;;;;;;4991566;28;20205;-76
2022/01/18 04:13:15;;;;;;;14.83;3.87;;;;;;;;;;4990007;28;20316;-77
2022/01/18 04:15:42;;;;;;;7.63;3.53;;;;;;;;;;4994070;28;20746;-76
2022/01/18 04:18:21;;;;;;;18.23;4.70;;;;;;;;;;4992807;28;20682;-76
2022/01/18 04:29:03;;;;;;;13.77;4.37;;;;;;;;;;4993418;28;20228;-75
2022/01/18 04:31:30;;;;;;;15.67;4.20;;;;;;;;;;4993130;28;20398;-77
2022/01/18 04:33:59;;;;;;;15.63;4.70;;;;;;;;;;4993909;28;20227;-74
2022/01/18 04:36:27;;;;;;;19.47;7.70;;;;;;;;;;4994049;28;20197;-74
2022/01/18 04:38:54;;;;;;;22.13;8.20;;;;;;;;;;4991220;28;20212;-74
2022/01/18 04:41:26;;;;;;;18.47;6.50;;;;;;;;;;4992778;28;20205;-73
2022/01/18 04:44:10;;;;;;;12.40;5.33;;;;;;;;;;4990869;28;20232;-74
2022/01/18 04:49:23;;;;;;;14.97;5.53;;;;;;;;;;4991130;28;20824;-74
2022/01/18 04:51:50;;;;;;;17.90;6.77;;;;;;;;;;4992803;28;20239;-74
2022/01/18 04:54:17;;;;;;;19.17;4.90;;;;;;;;;;4992552;28;20669;-74
2022/01/18 04:59:30;;;;;;;22.40;5.33;;;;;;;;;;4991776;28;20204;-74
2022/01/18 05:01:57;;;;;;;17.27;4.00;;;;;;;;;;4991339;28;20287;-75
2022/01/18 05:04:26;;;;;;;14.63;4.97;;;;;;;;;;4990492;28;20751;-76
2022/01/18 05:06:58;;;;;;;30.80;5.17;;;;;;;;;;4993363;28;20209;-76
2022/01/18 05:09:25;;;;;;;20.60;4.87;;;;;;;;;;4990878;28;20229;-76
2022/01/18 05:12:00;;;;;;;18.77;4.83;;;;;;;;;;4993579;28;20753;-75
2022/01/18 05:14:31;;;;;;;17.00;4.50;;;;;;;;;;4990185;28;20216;-75
2022/01/18 05:17:06;;;;;;;17.60;4.30;;;;;;;;;;4992582;28;20212;-75
2022/01/18 05:19:43;;;;;;;14.37;4.20;;;;;;;;;;4988194;28;20232;-75
2022/01/18 05:25:10;;;;;;;17.57;4.57;;;;;;;;;;4939768;28;20705;-73
2022/01/18 05:27:37;;;;;;;22.30;5.10;;;;;;;;;;4936316;28;20673;-75
2022/01/18 05:30:05;;;;;;;21.30;4.20;;;;;;;;;;4963253;28;20212;-73
2022/01/18 05:32:32;;;;;;;19.73;4.97;;;;;;;;;;4990060;28;20242;-75
2022/01/18 05:35:00;;;;;;;19.57;4.43;;;;;;;;;;4990373;28;20406;-75
2022/01/18 05:37:27;;;;;;;12.57;4.20;;;;;;;;;;4989164;28;20205;-75
2022/01/18 05:39:55;;;;;;;19.03;4.57;;;;;;;;;;4989438;28;20219;-76
2022/01/18 05:42:22;;;;;;;17.00;4.60;;;;;;;;;;4990956;28;20228;-75
2022/01/18 05:44:49;;;;;;;20.37;4.53;;;;;;;;;;4993690;28;20300;-76
2022/01/18 05:47:16;;;;;;;12.63;4.30;;;;;;;;;;4994245;28;20296;-75
2022/01/18 05:49:43;;;;;;;13.17;4.30;;;;;;;;;;4993296;28;20294;-75
2022/01/18 05:52:12;;;;;;;19.60;5.43;;;;;;;;;;4993766;28;20248;-74
2022/01/18 05:54:39;;;;;;;22.47;6.53;;;;;;;;;;4995894;28;20200;-73
2022/01/18 05:57:06;;;;;;;20.87;5.30;;;;;;;;;;4992645;28;20201;-75
2022/01/18 05:59:37;;;;;;;23.40;5.50;;;;;;;;;;4997743;28;20204;-75
2022/01/18 06:02:15;;;;;;;16.33;4.60;;;;;;;;;;4992688;28;20232;-75
2022/01/18 06:07:29;;;;;;;16.80;4.57;;;;;;;;;;4992453;28;20224;-75
2022/01/18 06:09:57;;;;;;;16.93;5.00;;;;;;;;;;4995864;28;20537;-75
2022/01/18 06:12:24;;;;;;;15.07;5.00;;;;;;;;;;4989832;28;20729;-72
2022/01/18 06:14:51;;;;;;;22.50;4.77;;;;;;;;;;4993381;28;20271;-74
2022/01/18 06:17:18;;;;;;;13.27;4.47;;;;;;;;;;4994731;28;20223;-73
2022/01/18 06:19:46;;;;;;;18.60;4.67;;;;;;;;;;4993401;28;20205;-75
2022/01/18 06:22:13;;;;;;;19.80;5.37;;;;;;;;;;4993786;28;20235;-74
2022/01/18 06:24:41;;;;;;;16.07;4.53;;;;;;;;;;4992684;28;20231;-76
2022/01/18 06:27:09;;;;;;;17.70;4.87;;;;;;;;;;4992417;28;20197;-74
2022/01/18 06:29:36;;;;;;;14.80;4.40;;;;;;;;;;4993460;28;20240;-75
2022/01/18 06:32:04;;;;;;;25.13;5.13;;;;;;;;;;4995534;28;20208;-74
2022/01/18 06:34:31;;;;;;;21.30;5.13;;;;;;;;;;4995506;28;20205;-74
2022/01/18 06:36:59;;;;;;;23.23;5.03;;;;;;;;;;4996067;28;20351;-74
2022/01/18 06:39:26;;;;;;;25.27;6.40;;;;;;;;;;4994341;28;20205;-75
2022/01/18 06:41:54;;;;;;;22.03;7.20;;;;;;;;;;4994773;28;20201;-75
2022/01/18 06:44:22;;;;;;;28.27;7.13;;;;;;;;;;4990491;28;20228;-73
2022/01/18 06:46:49;;;;;;;22.40;6.87;;;;;;;;;;4993772;28;20209;-75
2022/01/18 06:49:16;;;;;;;27.73;7.90;;;;;;;;;;4993736;28;20208;-76
2022/01/18 06:51:44;;;;;;;29.73;8.93;;;;;;;;;;4998477;28;20677;-76
2022/01/18 06:54:15;;;;;;;24.97;7.80;;;;;;;;;;4998643;28;20254;-75
2022/01/18 06:56:45;;;;;;;27.97;8.50;;;;;;;;;;4995628;28;20208;-76
2022/01/18 06:59:14;;;;;;;19.47;7.67;;;;;;;;;;4995851;28;20212;-74
2022/01/18 07:01:41;;;;;;;20.67;8.00;;;;;;;;;;4998889;28;20586;-75
2022/01/18 07:04:08;;;;;;;29.20;7.53;;;;;;;;;;4992404;28;20233;-75
2022/01/18 07:06:36;;;;;;;18.17;6.80;;;;;;;;;;4997631;28;20222;-75
2022/01/18 07:09:04;;;;;;;22.53;6.93;;;;;;;;;;4995328;28;20201;-76
2022/01/18 07:11:31;;;;;;;24.07;7.20;;;;;;;;;;4998426;28;20227;-76
2022/01/18 07:13:58;;;;;;;20.67;6.37;;;;;;;;;;4993102;28;20758;-76
2022/01/18 07:16:27;;;;;;;22.43;6.97;;;;;;;;;;4994736;28;20201;-74
2022/01/18 07:18:54;;;;;;;21.90;6.80;;;;;;;;;;4998896;28;20215;-74
2022/01/18 07:21:21;;;;;;;21.53;6.97;;;;;;;;;;4998287;28;20574;-76
2022/01/18 07:23:50;;;;;;;22.60;7.27;;;;;;;;;;4993595;28;20223;-75
2022/01/18 07:26:17;;;;;;;25.87;7.27;;;;;;;;;;4999278;28;20683;-76
2022/01/18 07:28:44;;;;;;;17.97;7.03;;;;;;;;;;4995141;28;20585;-75
2022/01/18 07:31:15;;;;;;;24.17;6.93;;;;;;;;;;4994387;28;20212;-75
2022/01/18 07:33:43;;;;;;;18.17;7.03;;;;;;;;;;4997022;28;20220;-75
2022/01/18 07:36:10;;;;;;;19.60;7.83;;;;;;;;;;4995839;28;20323;-76
2022/01/18 07:38:37;;;;;;;26.23;8.13;;;;;;;;;;5002019;28;20204;-74
2022/01/18 07:41:04;;;;;;;19.50;7.40;;;;;;;;;;4996681;28;20205;-73
2022/01/18 07:43:32;;;;;;;20.93;8.43;;;;;;;;;;4993463;28;20233;-75
2022/01/18 07:45:59;;;;;;;26.67;8.37;;;;;;;;;;4994772;28;20220;-74
2022/01/18 07:48:26;;;;;;;29.40;9.20;;;;;;;;;;4996597;28;20216;-75
2022/01/18 07:50:55;;;;;;;23.27;10.23;;;;;;;;;;4999564;28;20205;-74
2022/01/18 07:53:22;;;;;;;23.73;9.77;;;;;;;;;;4998328;28;20668;-75
2022/01/18 07:55:49;;;;;;;34.00;9.77;;;;;;;;;;4995742;28;20211;-75
2022/01/18 07:58:18;;;;;;;31.07;8.87;;;;;;;;;;4999019;28;20255;-74
2022/01/18 08:00:45;;;;;;;30.07;9.40;;;;;;;;;;4994713;28;20197;-76
2022/01/18 08:03:12;;;;;;;27.17;9.07;;;;;;;;;;4993601;28;20259;-74
2022/01/18 08:05:40;;;;;;;29.27;9.73;;;;;;;;;;4992020;28;20211;-74
2022/01/18 08:08:08;;;;;;;29.03;8.57;;;;;;;;;;4998375;28;20291;-73
2022/01/18 08:10:36;;;;;;;24.90;8.23;;;;;;;;;;4995227;28;20308;-74
2022/01/18 08:13:04;;;;;;;29.03;8.57;;;;;;;;;;4994440;28;20221;-76
2022/01/18 08:15:38;;;;;;;29.17;8.37;;;;;;;;;;4991280;28;20205;-75
2022/01/18 08:18:05;;;;;;;32.30;8.70;;;;;;;;;;4996499;28;20208;-74
2022/01/18 08:20:33;;;;;;;29.50;9.03;;;;;;;;;;4999089;28;20284;-74
2022/01/18 08:23:00;;;;;;;22.10;8.07;;;;;;;;;;4994282;28;20229;-75
2022/01/18 08:25:29;;;;;;;30.10;9.33;;;;;;;;;;4995355;28;20228;-75
2022/01/18 08:27:57;;;;;;;29.93;8.87;;;;;;;;;;4991506;28;20209;-74
2022/01/18 08:30:24;;;;;;;26.90;9.20;;;;;;;;;;4999402;28;20236;-75
2022/01/18 08:32:54;;;;;;;25.97;8.87;;;;;;;;;;4992230;28;20235;-75
2022/01/18 08:35:22;;;;;;;23.17;8.20;;;;;;;;;;4996549;28;20231;-75
2022/01/18 08:37:49;;;;;;;28.70;10.03;;;;;;;;;;4995026;28;20213;-74
2022/01/18 08:40:16;;;;;;;27.47;7.20;;;;;;;;;;4997524;28;20197;-74
2022/01/18 08:42:45;;;;;;;23.70;7.90;;;;;;;;;;4994850;28;20220;-74
2022/01/18 08:45:12;;;;;;;19.93;7.23;;;;;;;;;;4998272;28;20767;-74
2022/01/18 08:47:39;;;;;;;17.80;6.83;;;;;;;;;;4996476;28;20236;-75
2022/01/18 08:50:07;;;;;;;19.00;7.80;;;;;;;;;;4994203;28;20219;-75
2022/01/18 08:52:34;;;;;;;20.40;7.53;;;;;;;;;;4994320;28;20729;-76
2022/01/18 08:55:02;;;;;;;21.10;7.70;;;;;;;;;;4994388;28;20208;-75
2022/01/18 08:57:29;;;;;;;22.70;8.37;;;;;;;;;;4990407;28;20659;-75
2022/01/18 08:59:57;;;;;;;19.87;7.53;;;;;;;;;;4995448;28;20293;-75
2022/01/18 09:02:24;;;;;;;18.27;7.53;;;;;;;;;;4990134;28;20259;-76
2022/01/18 09:04:52;;;;;;;19.80;7.43;;;;;;;;;;4998821;28;20508;-75
2022/01/18 09:07:20;;;;;;;16.50;8.10;;;;;;;;;;4999309;28;20297;-76
2022/01/18 09:09:51;;;;;;;21.80;8.33;;;;;;;;;;4996512;28;20700;-75
2022/01/18 09:12:18;;;;;;;23.20;7.97;;;;;;;;;;4995505;28;20229;-76
2022/01/18 09:14:45;;;;;;;29.43;9.80;;;;;;;;;;4990974;28;20292;-76
2022/01/18 09:17:14;;;;;;;18.37;7.80;;;;;;;;;;4996186;28;20242;-75
2022/01/18 09:19:41;;;;;;;17.67;7.87;;;;;;;;;;5001092;28;20247;-75
2022/01/18 09:22:08;;;;;;;23.60;8.60;;;;;;;;;;4998686;28;20218;-75
2022/01/18 09:24:36;;;;;;;18.03;7.90;;;;;;;;;;4997375;28;20273;-75
2022/01/18 09:27:03;;;;;;;17.87;7.33;;;;;;;;;;5001325;28;20209;-75
2022/01/18 09:29:30;;;;;;;19.03;8.33;;;;;;;;;;5005917;28;20208;-75
2022/01/18 09:31:58;;;;;;;18.40;7.73;;;;;;;;;;4998193;28;20220;-76
2022/01/18 09:34:27;;;;;;;17.17;7.27;;;;;;;;;;5001945;28;20292;-75
2022/01/18 09:36:54;;;;;;;17.73;7.70;;;;;;;;;;4997268;28;20208;-75
2022/01/18 09:39:22;;;;;;;20.77;7.77;;;;;;;;;;4999928;28;20216;-76
2022/01/18 09:41:51;;;;;;;14.37;6.50;;;;;;;;;;4996745;28;20236;-75
2022/01/18 09:44:19;;;;;;;13.37;6.77;;;;;;;;;;4999291;28;20224;-76
2022/01/18 09:46:46;;;;;;;15.50;6.90;;;;;;;;;;5001145;28;20204;-75
2022/01/18 09:49:14;;;;;;;16.80;7.87;;;;;;;;;;5002843;28;20232;-75
2022/01/18 09:51:43;;;;;;;13.63;7.00;;;;;;;;;;4999007;28;20205;-75
2022/01/18 09:54:11;;;;;;;15.57;6.87;;;;;;;;;;5000467;28;20327;-75
2022/01/18 09:56:38;;;;;;;17.97;6.93;;;;;;;;;;4994587;28;20222;-75
2022/01/18 09:59:06;;;;;;;12.93;6.23;;;;;;;;;;4999594;28;20215;-75
2022/01/18 10:01:33;;;;;;;14.07;6.33;;;;;;;;;;4996602;28;20211;-75
2022/01/18 10:04:18;;;;;;;11.70;5.97;;;;;;;;;;5001538;28;20221;-75
2022/01/18 10:06:47;;;;;;;14.03;6.23;;;;;;;;;;4996914;28;20204;-75
2022/01/18 10:09:14;;;;;;;12.43;6.37;;;;;;;;;;5000509;28;20296;-75
2022/01/18 10:11:56;;;;;;;10.80;5.10;;;;;;;;;;4998919;28;20659;-76
2022/01/18 10:14:24;;;;;;;8.90;4.73;;;;;;;;;;4998524;28;20200;-75
2022/01/18 10:16:51;;;;;;;9.40;5.07;;;;;;;;;;4995453;28;20714;-75
2022/01/18 10:19:29;;;;;;;10.90;5.10;;;;;;;;;;4999199;28;20623;-75
2022/01/18 10:22:10;;;;;;;12.73;6.30;;;;;;;;;;4998653;28;20223;-75
2022/01/18 10:24:38;;;;;;;11.87;5.40;;;;;;;;;;5004026;28;20232;-76
2022/01/18 10:27:06;;;;;;;14.33;5.73;;;;;;;;;;4998732;28;20630;-75
2022/01/18 10:29:34;;;;;;;12.20;5.37;;;;;;;;;;4998107;28;20727;-75
2022/01/18 10:32:10;;;;;;;13.67;5.23;;;;;;;;;;4999973;28;20208;-75
2022/01/18 10:35:04;;;;;;;11.13;5.23;;;;;;;;;;5000397;28;20225;-75
2022/01/18 10:37:32;;;;;;;9.97;4.90;;;;;;;;;;5001799;28;20569;-75
2022/01/18 10:40:00;;;;;;;7.43;4.10;;;;;;;;;;4995477;28;20212;-75
2022/01/18 10:42:31;;;;;;;9.67;4.13;;;;;;;;;;4996697;28;20229;-76
2022/01/18 10:45:03;;;;;;;8.20;4.10;;;;;;;;;;4996689;28;20225;-75
2022/01/18 10:47:31;;;;;;;7.70;3.83;;;;;;;;;;4999446;28;20256;-75
2022/01/18 10:49:58;;;;;;;10.93;3.73;;;;;;;;;;5001319;28;20223;-75
2022/01/18 10:52:28;;;;;;;5.90;2.30;;;;;;;;;;5004379;28;20972;-75
2022/01/18 10:54:57;;;;;;;3.83;1.93;;;;;;;;;;4994121;28;20193;-75
2022/01/18 10:57:25;;;;;;;6.43;2.17;;;;;;;;;;5000545;28;20315;-75
2022/01/18 10:59:56;;;;;;;7.80;2.77;;;;;;;;;;4995579;28;20300;-76
2022/01/18 11:02:24;;;;;;;6.90;2.97;;;;;;;;;;4997846;28;20224;-75
2022/01/18 11:04:52;;;;;;;7.90;3.43;;;;;;;;;;4994437;28;20226;-75
2022/01/18 11:07:20;;;;;;;4.57;2.40;;;;;;;;;;5004051;28;20219;-75
2022/01/18 11:09:48;;;;;;;5.07;2.30;;;;;;;;;;5003280;28;20307;-76
2022/01/18 11:12:19;;;;;;;6.47;2.10;;;;;;;;;;4998250;28;20232;-75
2022/01/18 11:14:49;;;;;;;4.47;2.53;;;;;;;;;;4999845;28;20287;-75
2022/01/18 11:17:22;;;;;;;9.67;2.77;;;;;;;;;;4998038;28;20205;-76
2022/01/18 11:19:50;;;;;;;5.80;2.60;;;;;;;;;;4998951;28;20272;-75
2022/01/18 11:22:18;;;;;;;3.93;2.10;;;;;;;;;;4996741;28;20224;-75
2022/01/18 11:24:47;;;;;;;5.20;2.67;;;;;;;;;;4999572;28;20220;-75
2022/01/18 11:27:15;;;;;;;5.83;2.63;;;;;;;;;;4998386;28;20205;-75
2022/01/18 11:29:44;;;;;;;4.63;2.10;;;;;;;;;;4999017;28;20300;-75
2022/01/18 11:32:12;;;;;;;3.13;1.90;;;;;;;;;;4997784;28;20644;-75
2022/01/18 11:34:50;;;;;;;5.97;2.37;;;;;;;;;;4997263;28;20299;-75
2022/01/18 11:37:18;;;;;;;7.13;1.90;;;;;;;;;;4997162;28;20205;-75
2022/01/18 11:39:45;;;;;;;5.20;1.83;;;;;;;;;;4994247;28;20213;-75
2022/01/18 11:42:14;;;;;;;4.23;1.80;;;;;;;;;;4997255;28;20232;-75
2022/01/18 11:44:41;;;;;;;2.37;1.33;;;;;;;;;;4991971;28;20236;-75
2022/01/18 11:47:10;;;;;;;3.23;1.63;;;;;;;;;;4994074;28;20294;-75
2022/01/18 11:49:37;;;;;;;3.03;1.50;;;;;;;;;;4998995;28;20205;-75
2022/01/18 11:52:06;;;;;;;3.47;1.37;;;;;;;;;;4996346;28;20219;-75
2022/01/18 11:54:43;;;;;;;4.13;1.40;;;;;;;;;;4998359;28;20268;-76
2022/01/18 11:57:29;;;;;;;6.67;1.97;;;;;;;;;;4995785;28;20200;-75
2022/01/18 11:59:58;;;;;;;7.43;1.60;;;;;;;;;;4997017;28;20209;-75
2022/01/18 12:02:29;;;;;;;9.17;2.13;;;;;;;;;;5000402;28;20692;-75
2022/01/18 12:05:14;;;;;;;3.13;1.47;;;;;;;;;;4996026;28;20303;-76
2022/01/18 12:07:48;;;;;;;6.10;1.83;;;;;;;;;;4997236;28;20311;-75
2022/01/18 12:10:32;;;;;;;3.77;1.03;;;;;;;;;;4993939;28;20652;-75
2022/01/18 12:13:01;;;;;;;5.40;1.50;;;;;;;;;;4996500;28;20635;-76
2022/01/18 12:15:46;;;;;;;4.57;1.47;;;;;;;;;;5002769;28;20463;-75
2022/01/18 12:18:17;;;;;;;7.60;2.03;;;;;;;;;;5001414;28;20825;-75
2022/01/18 12:20:44;;;;;;;7.17;2.13;;;;;;;;;;5001577;28;20227;-75
2022/01/18 12:23:12;;;;;;;6.67;1.80;;;;;;;;;;5003082;28;20742;-75
2022/01/18 12:25:55;;;;;;;10.53;3.10;;;;;;;;;;4997986;28;20241;-75
2022/01/18 12:28:49;;;;;;;5.60;2.20;;;;;;;;;;4996349;28;20205;-75
2022/01/18 12:31:41;;;;;;;11.60;6.13;;;;;;;;;;4994165;28;20232;-75
2022/01/18 12:34:23;;;;;;;15.83;6.20;;;;;;;;;;5000669;28;20321;-75
2022/01/18 12:36:52;;;;;;;14.40;6.47;;;;;;;;;;4996106;28;20292;-75
2022/01/18 12:39:20;;;;;;;5.80;2.23;;;;;;;;;;4999716;28;20292;-75
2022/01/18 12:41:52;;;;;;;1.97;1.10;;;;;;;;;;4995717;28;20209;-75
2022/01/18 12:44:21;;;;;;;1.47;0.70;;;;;;;;;;4995061;28;20227;-75
2022/01/18 12:46:51;;;;;;;2.23;0.90;;;;;;;;;;4997168;28;20528;-75
2022/01/18 12:49:19;;;;;;;2.17;0.60;;;;;;;;;;4995952;28;20709;-75
2022/01/18 12:51:46;;;;;;;3.17;0.90;;;;;;;;;;4997965;28;20204;-75
2022/01/18 12:54:14;;;;;;;2.50;1.00;;;;;;;;;;4998113;28;20234;-75
2022/01/18 12:56:42;;;;;;;1.40;0.87;;;;;;;;;;4998989;28;20622;-75
2022/01/18 12:59:09;;;;;;;3.33;0.97;;;;;;;;;;4972054;28;20313;-75
2022/01/18 13:01:37;;;;;;;0.90;0.53;;;;;;;;;;4976429;28;20205;-75
2022/01/18 13:04:08;;;;;;;2.17;0.50;;;;;;;;;;4975628;28;20217;-75
2022/01/18 13:06:36;;;;;;;4.40;0.90;;;;;;;;;;4973823;28;20221;-75
2022/01/18 13:09:04;;;;;;;2.03;0.80;;;;;;;;;;4975954;28;20513;-75
2022/01/18 13:11:34;;;;;;;2.00;0.73;;;;;;;;;;4977249;28;20664;-75
2022/01/18 13:14:07;;;;;;;2.97;1.10;;;;;;;;;;4975451;28;20225;-75
2022/01/18 13:25:04;;;;;;;2.73;0.60;;;;;;;;;;4978391;28;20337;-75
2022/01/18 13:27:37;;;;;;;4.83;0.60;;;;;;;;;;4975508;28;20205;-75
2022/01/18 13:30:10;;;;;;;1.57;0.60;;;;;;;;;;4981834;28;20205;-74
2022/01/18 13:32:38;;;;;;;1.70;0.57;;;;;;;;;;4977579;28;20316;-74
2022/01/18 13:35:06;;;;;;;1.53;0.37;;;;;;;;;;4975847;28;20206;-74
2022/01/18 13:37:34;;;;;;;1.63;0.50;;;;;;;;;;4975867;28;20247;-74
2022/01/18 13:40:03;;;;;;;16.10;4.87;;;;;;;;;;4974367;28;20209;-74
2022/01/18 13:42:36;;;;;;;4.60;1.10;;;;;;;;;;4973529;28;20228;-76
2022/01/18 13:45:11;;;;;;;1.57;0.60;;;;;;;;;;4973115;28;20233;-77
2022/01/18 13:47:39;;;;;;;1.37;0.50;;;;;;;;;;4972666;28;20213;-77
2022/01/18 13:50:06;;;;;;;1.83;0.60;;;;;;;;;;4972815;28;20222;-77
2022/01/18 13:52:34;;;;;;;1.43;0.50;;;;;;;;;;4973063;28;20317;-77
2022/01/18 13:55:01;;;;;;;0.77;0.40;;;;;;;;;;4974706;28;20286;-77
2022/01/18 13:57:28;;;;;;;0.87;0.40;;;;;;;;;;4975150;28;20208;-77
2022/01/18 13:59:58;;;;;;;2.13;0.60;;;;;;;;;;4973400;28;20585;-77
2022/01/18 14:02:26;;;;;;;20.37;11.60;;;;;;;;;;4971665;28;20608;-77
2022/01/18 14:05:09;;;;;;;20.53;11.70;;;;;;;;;;4974841;28;20597;-77
2022/01/18 14:07:36;;;;;;;3.53;1.10;;;;;;;;;;4975811;28;20245;-76
2022/01/18 14:10:04;;;;;;;1.40;0.73;;;;;;;;;;4976025;28;20292;-77
2022/01/18 14:12:32;;;;;;;0.87;0.40;;;;;;;;;;4973052;28;20229;-75
2022/01/18 14:15:01;;;;;;;4.03;0.80;;;;;;;;;;4976177;28;20657;-75
2022/01/18 14:17:28;;;;;;;1.83;0.60;;;;;;;;;;4970557;28;20210;-75
2022/01/18 14:20:02;;;;;;;1.73;0.50;;;;;;;;;;4972090;28;20330;-75
2022/01/18 14:22:30;;;;;;;2.37;0.60;;;;;;;;;;4971504;28;20311;-75
2022/01/18 14:24:58;;;;;;;2.30;0.70;;;;;;;;;;4976216;28;20220;-75
2022/01/18 14:27:28;;;;;;;1.70;0.90;;;;;;;;;;4975503;28;20233;-74
2022/01/18 14:29:56;;;;;;;1.83;0.50;;;;;;;;;;4974695;28;20205;-74
2022/01/18 14:32:27;;;;;;;2.93;0.40;;;;;;;;;;4973799;28;20216;-74
2022/01/18 14:34:56;;;;;;;1.90;0.60;;;;;;;;;;4971643;28;20205;-74
2022/01/18 14:37:35;;;;;;;2.00;0.50;;;;;;;;;;4974460;28;20217;-75
2022/01/18 14:40:04;;;;;;;2.40;0.60;;;;;;;;;;4970661;28;20206;-75
2022/01/18 14:42:34;;;;;;;1.23;0.53;;;;;;;;;;4972946;28;20230;-75
2022/01/18 14:45:18;;;;;;;1.53;0.50;;;;;;;;;;4973753;28;20414;-75
2022/01/18 14:47:46;;;;;;;1.27;0.63;;;;;;;;;;4976266;28;20198;-75
2022/01/18 14:50:15;;;;;;;2.53;0.57;;;;;;;;;;4974099;28;20280;-75
2022/01/18 14:52:45;;;;;;;1.53;0.73;;;;;;;;;;4975267;28;20221;-75
2022/01/18 14:55:12;;;;;;;1.03;0.43;;;;;;;;;;4975249;28;20205;-75
2022/01/18 14:57:39;;;;;;;1.00;0.50;;;;;;;;;;4978703;28;20197;-75
2022/01/18 15:00:08;;;;;;;1.30;0.40;;;;;;;;;;4977127;28;20292;-75
2022/01/18 15:02:35;;;;;;;0.90;0.50;;;;;;;;;;4977918;28;20268;-75
2022/01/18 15:05:04;;;;;;;1.43;0.60;;;;;;;;;;4974804;28;20248;-75
2022/01/18 15:07:31;;;;;;;3.77;0.70;;;;;;;;;;4974988;28;20226;-75
2022/01/18 15:09:59;;;;;;;2.47;1.13;;;;;;;;;;4977276;28;21854;-75
2022/01/18 15:12:26;;;;;;;7.33;3.47;;;;;;;;;;4973762;28;20231;-75
2022/01/18 15:14:53;;;;;;;9.50;3.90;;;;;;;;;;4976156;28;20292;-74
2022/01/18 15:17:20;;;;;;;4.47;2.30;;;;;;;;;;4972762;28;20829;-75
2022/01/18 15:19:48;;;;;;;5.43;2.10;;;;;;;;;;4973553;28;20216;-75
2022/01/18 15:22:18;;;;;;;5.33;2.53;;;;;;;;;;4973578;28;20718;-74
2022/01/18 15:24:45;;;;;;;3.33;2.23;;;;;;;;;;4974274;28;20209;-75
2022/01/18 15:27:12;;;;;;;4.33;2.23;;;;;;;;;;4970256;28;20232;-75
2022/01/18 15:29:41;;;;;;;3.40;2.30;;;;;;;;;;4975988;28;20300;-75
2022/01/18 15:32:09;;;;;;;2.60;1.50;;;;;;;;;;4975761;28;20210;-75
2022/01/18 15:34:36;;;;;;;2.70;1.33;;;;;;;;;;4972861;28;20209;-74
2022/01/18 15:37:03;;;;;;;2.27;1.33;;;;;;;;;;4968840;28;20202;-74